Time;durP1;ratioP1;P1;durP2;ratioP2;P2;SDS_P1;SDS_P2;PMS_P1;PMS_P2;Temp;Humidity;BMP_temperature;BMP_pressure;BME280_temperature;BME280_humidity;BME280_pressure;Samples;Min_cycle;Max_cycle;Signal;HPM_P1;HPM_P2
2024/03/24 00:01:07;;;;;;;2.10;1.40;;;;;;;6.27;66.73;95616.56;4965110;28;20800;-68
2024/03/24 00:03:33;;;;;;;2.30;1.40;;;;;;;6.26;67.13;95612.25;4965553;28;20260;-67
2024/03/24 00:05:59;;;;;;;2.53;1.60;;;;;;;6.22;67.15;95602.88;4972004;28;20970;-69
2024/03/24 00:08:24;;;;;;;2.70;1.30;;;;;;;6.30;66.97;95598.19;4966957;28;20519;-68
2024/03/24 00:10:50;;;;;;;3.17;2.00;;;;;;;6.27;66.69;95595.72;4962924;28;20441;-68
2024/03/24 00:13:15;;;;;;;3.23;1.70;;;;;;;6.31;66.51;95592.94;4966554;28;20189;-69
2024/03/24 00:15:41;;;;;;;2.37;1.77;;;;;;;6.47;66.03;95582.75;4962183;28;20173;-69
2024/03/24 00:18:06;;;;;;;2.77;1.70;;;;;;;6.25;66.81;95582.75;4964855;28;20250;-67
2024/03/24 00:20:36;;;;;;;2.00;1.30;;;;;;;6.30;66.78;95578.19;4967927;28;20193;-69
2024/03/24 00:23:01;;;;;;;1.67;1.20;;;;;;;6.33;66.83;95572.88;4967419;28;20450;-69
2024/03/24 00:25:26;;;;;;;1.73;1.43;;;;;;;6.35;67.05;95570.19;4965176;28;20507;-67
2024/03/24 00:27:52;;;;;;;1.80;1.43;;;;;;;6.34;67.06;95568.50;4961387;28;21034;-70
2024/03/24 00:30:17;;;;;;;2.70;1.43;;;;;;;6.43;66.72;95565.53;4971570;28;20240;-67
2024/03/24 00:32:43;;;;;;;2.93;1.60;;;;;;;6.35;67.17;95567.59;4974745;28;20185;-69
2024/03/24 00:35:08;;;;;;;1.87;1.30;;;;;;;6.38;67.85;95554.47;4970169;28;20395;-70
2024/03/24 00:37:35;;;;;;;8.43;1.97;;;;;;;6.24;67.94;95549.81;4968699;28;20193;-67
2024/03/24 00:40:01;;;;;;;3.40;1.70;;;;;;;6.17;68.56;95542.31;4967377;28;20536;-69
2024/03/24 00:42:26;;;;;;;3.00;1.80;;;;;;;6.34;67.88;95542.44;4963942;28;20649;-69
2024/03/24 00:44:51;;;;;;;1.90;1.37;;;;;;;6.41;67.99;95546.50;4967950;28;20909;-70
2024/03/24 00:47:17;;;;;;;1.80;1.60;;;;;;;6.48;68.01;95537.50;4966109;28;20654;-69
2024/03/24 00:49:42;;;;;;;3.20;1.63;;;;;;;6.28;68.11;95540.09;4962096;28;20202;-68
2024/03/24 00:52:07;;;;;;;2.40;1.53;;;;;;;6.44;67.96;95535.94;4958256;28;20224;-67
2024/03/24 00:54:33;;;;;;;2.97;1.27;;;;;;;6.42;67.51;95537.75;4960882;28;20199;-69
2024/03/24 00:56:58;;;;;;;1.97;1.57;;;;;;;6.41;68.33;95524.81;4964775;28;20277;-68
2024/03/24 00:59:23;;;;;;;2.30;1.60;;;;;;;6.23;69.18;95522.03;4964334;28;20712;-68
2024/03/24 01:01:49;;;;;;;1.67;1.53;;;;;;;6.50;67.72;95509.63;4961461;28;20269;-69
2024/03/24 01:04:15;;;;;;;1.93;1.37;;;;;;;6.41;68.12;95514.38;4960775;28;20170;-69
2024/03/24 01:06:40;;;;;;;2.93;1.60;;;;;;;6.36;68.76;95506.75;4960598;28;20762;-67
2024/03/24 01:09:05;;;;;;;1.57;1.37;;;;;;;6.39;68.57;95511.84;4960341;28;20480;-69
2024/03/24 01:11:31;;;;;;;3.30;1.33;;;;;;;6.48;68.70;95501.03;4957668;28;20189;-70
2024/03/24 01:13:56;;;;;;;2.03;1.73;;;;;;;6.38;68.93;95502.34;4952917;28;20186;-67
2024/03/24 01:16:22;;;;;;;2.80;1.37;;;;;;;6.29;69.41;95494.91;4966683;28;20193;-68
2024/03/24 01:18:47;;;;;;;4.40;1.50;;;;;;;6.40;68.20;95499.66;4967643;28;20228;-70
2024/03/24 01:21:12;;;;;;;1.97;1.20;;;;;;;6.34;67.62;95499.00;4966199;28;20177;-67
2024/03/24 01:23:38;;;;;;;3.97;2.23;;;;;;;6.30;68.24;95489.59;4976992;28;20231;-68
2024/03/24 01:26:03;;;;;;;2.67;1.30;;;;;;;6.34;67.83;95485.97;4960881;28;20272;-69
2024/03/24 01:28:28;;;;;;;2.77;1.30;;;;;;;6.38;67.96;95478.00;4959566;28;20255;-68
2024/03/24 01:30:54;;;;;;;2.13;1.73;;;;;;;6.31;68.37;95477.44;4962223;28;20189;-69
2024/03/24 01:33:19;;;;;;;2.00;1.30;;;;;;;6.31;68.16;95467.88;4962911;28;20188;-67
2024/03/24 01:35:48;;;;;;;3.83;1.37;;;;;;;6.33;68.36;95466.06;4963591;28;20177;-69
2024/03/24 01:38:14;;;;;;;2.33;1.20;;;;;;;6.40;68.56;95463.16;4967873;28;20289;-70
2024/03/24 01:40:49;;;;;;;2.33;1.10;;;;;;;6.51;67.12;95464.41;4965480;28;20433;-69
2024/03/24 01:43:14;;;;;;;1.60;1.50;;;;;;;6.39;68.20;95458.88;4968512;28;20501;-70
2024/03/24 01:45:40;;;;;;;1.70;1.20;;;;;;;6.36;68.59;95444.22;4962061;28;20465;-70
2024/03/24 01:48:06;;;;;;;1.90;1.23;;;;;;;6.27;68.45;95448.06;4954518;28;20293;-68
2024/03/24 01:50:32;;;;;;;2.57;1.63;;;;;;;6.33;68.50;95446.94;4958817;28;20527;-68
2024/03/24 01:52:57;;;;;;;1.63;1.53;;;;;;;6.34;69.42;95440.84;4966328;28;20186;-68
2024/03/24 01:55:23;;;;;;;1.50;1.20;;;;;;;6.34;69.05;95443.44;4976412;28;20180;-69
2024/03/24 01:57:49;;;;;;;1.83;1.20;;;;;;;6.29;69.62;95434.97;4970136;28;20174;-69
2024/03/24 02:00:15;;;;;;;2.27;1.37;;;;;;;6.31;69.43;95444.41;4955744;28;20189;-68
2024/03/24 02:02:41;;;;;;;1.70;1.50;;;;;;;6.35;69.67;95432.09;4961329;28;20436;-69
2024/03/24 02:05:06;;;;;;;2.70;2.50;;;;;;;6.28;68.72;95441.94;4969618;28;20469;-69
2024/03/24 02:07:31;;;;;;;3.80;2.77;;;;;;;6.28;68.59;95436.75;4960609;28;20232;-66
2024/03/24 02:09:57;;;;;;;3.13;2.93;;;;;;;6.14;69.21;95437.31;4959542;28;20205;-69
2024/03/24 02:12:22;;;;;;;2.40;2.03;;;;;;;6.23;68.32;95435.22;4966102;28;20190;-67
2024/03/24 02:14:48;;;;;;;4.77;1.93;;;;;;;6.04;69.38;95428.16;4969735;28;20170;-68
2024/03/24 02:17:13;;;;;;;2.63;2.00;;;;;;;5.96;69.29;95422.44;4967037;28;20240;-70
2024/03/24 02:19:38;;;;;;;1.90;1.70;;;;;;;6.02;68.78;95431.75;4968916;28;20197;-69
2024/03/24 02:22:04;;;;;;;1.90;1.80;;;;;;;5.98;69.05;95438.88;4973616;28;20188;-69
2024/03/24 02:24:29;;;;;;;3.37;2.10;;;;;;;5.97;69.69;95436.31;4965360;28;20194;-69
2024/03/24 02:26:55;;;;;;;2.10;1.90;;;;;;;6.03;69.24;95436.06;4969573;28;20193;-67
2024/03/24 02:29:20;;;;;;;2.27;2.07;;;;;;;6.03;69.37;95431.69;4968029;28;20205;-67
2024/03/24 02:31:46;;;;;;;2.07;1.47;;;;;;;6.17;68.77;95427.69;4969482;28;20241;-69
2024/03/24 02:34:11;;;;;;;3.50;2.00;;;;;;;6.20;68.66;95435.34;4969349;28;20185;-67
2024/03/24 02:36:36;;;;;;;4.50;1.70;;;;;;;6.10;69.12;95425.31;4969217;28;20189;-68
2024/03/24 02:39:05;;;;;;;2.17;1.70;;;;;;;6.05;68.85;95423.84;4965614;28;20210;-67
2024/03/24 02:41:31;;;;;;;1.70;1.50;;;;;;;6.00;69.08;95421.41;4961663;28;20208;-69
2024/03/24 02:43:56;;;;;;;2.63;1.70;;;;;;;6.04;68.61;95422.97;4965675;28;20429;-68
2024/03/24 02:46:22;;;;;;;6.40;2.00;;;;;;;6.02;68.89;95424.78;4969393;28;20472;-69
2024/03/24 02:48:47;;;;;;;1.40;1.30;;;;;;;5.95;69.09;95428.56;4965324;28;20332;-69
2024/03/24 02:51:13;;;;;;;2.43;2.17;;;;;;;6.05;69.11;95422.06;4964701;28;20266;-68
2024/03/24 02:53:39;;;;;;;2.20;2.00;;;;;;;5.97;69.31;95420.69;4962712;28;20178;-70
2024/03/24 02:56:05;;;;;;;1.93;1.63;;;;;;;5.88;69.61;95419.28;4956820;28;20185;-69
2024/03/24 02:58:30;;;;;;;1.60;1.40;;;;;;;5.97;69.09;95413.72;4970170;28;20797;-67
2024/03/24 03:00:55;;;;;;;3.87;2.30;;;;;;;5.87;69.87;95420.19;4966859;28;20559;-69
2024/03/24 03:03:21;;;;;;;5.50;1.77;;;;;;;6.01;68.96;95417.91;4966394;28;20194;-68
2024/03/24 03:05:47;;;;;;;2.23;1.73;;;;;;;6.08;68.84;95406.31;4968219;28;20241;-70
2024/03/24 03:08:12;;;;;;;2.40;1.60;;;;;;;6.05;68.88;95408.22;4961194;28;20540;-67
2024/03/24 03:10:39;;;;;;;2.23;1.43;;;;;;;5.99;69.11;95417.09;4961017;28;20182;-68
2024/03/24 03:13:04;;;;;;;1.60;1.50;;;;;;;5.99;68.85;95411.06;4972635;28;20196;-68
2024/03/24 03:15:31;;;;;;;2.00;1.43;;;;;;;6.04;68.74;95409.09;4968499;28;20421;-69
2024/03/24 03:17:56;;;;;;;2.03;1.80;;;;;;;6.05;69.18;95408.22;4968461;28;20181;-67
2024/03/24 03:20:21;;;;;;;1.83;1.50;;;;;;;6.10;68.33;95404.50;4969779;28;20459;-68
2024/03/24 03:22:47;;;;;;;1.43;1.30;;;;;;;6.09;67.74;95407.97;4970757;28;20178;-68
2024/03/24 03:25:13;;;;;;;1.87;1.60;;;;;;;6.07;68.15;95403.75;4971536;28;20263;-70
2024/03/24 03:27:38;;;;;;;4.03;1.60;;;;;;;6.05;67.57;95406.44;4975091;28;20177;-69
2024/03/24 03:30:07;;;;;;;2.80;1.30;;;;;;;6.07;67.33;95407.22;4970715;28;20310;-69
2024/03/24 03:32:34;;;;;;;2.40;1.30;;;;;;;5.99;66.73;95396.28;4968440;28;20236;-70
2024/03/24 03:34:59;;;;;;;3.40;1.33;;;;;;;6.03;66.96;95403.06;4972019;28;20417;-70
2024/03/24 03:37:25;;;;;;;4.00;1.20;;;;;;;6.10;66.49;95408.84;4968275;28;20963;-68
2024/03/24 03:39:50;;;;;;;3.00;1.50;;;;;;;6.06;66.12;95405.53;4967685;28;20201;-67
2024/03/24 03:42:16;;;;;;;2.23;1.50;;;;;;;5.96;66.66;95404.22;4968098;28;20243;-66
2024/03/24 03:44:41;;;;;;;1.37;1.00;;;;;;;5.98;66.68;95398.97;4966501;28;20208;-66
2024/03/24 03:47:07;;;;;;;1.30;1.10;;;;;;;5.96;66.43;95396.41;4964185;28;20181;-68
2024/03/24 03:49:33;;;;;;;2.50;1.30;;;;;;;6.09;66.02;95394.97;4963763;28;20202;-68
2024/03/24 03:51:58;;;;;;;4.90;1.07;;;;;;;6.09;65.54;95399.34;4964461;28;20248;-68
2024/03/24 03:54:24;;;;;;;1.27;1.00;;;;;;;5.98;65.43;95402.41;4963126;28;20447;-69
2024/03/24 03:56:50;;;;;;;3.00;1.33;;;;;;;5.86;65.71;95401.13;4968298;28;20189;-69
2024/03/24 03:59:16;;;;;;;2.33;1.43;;;;;;;5.82;65.83;95385.69;4966427;28;21000;-68
2024/03/24 04:01:42;;;;;;;3.23;1.30;;;;;;;5.89;65.48;95395.78;4967802;28;20440;-68
2024/03/24 04:04:08;;;;;;;2.00;1.10;;;;;;;5.93;65.13;95394.75;4967791;28;20437;-68
2024/03/24 04:06:34;;;;;;;6.83;1.10;;;;;;;5.90;65.46;95394.84;4957131;28;20188;-68
2024/03/24 04:09:00;;;;;;;2.60;1.00;;;;;;;5.94;65.22;95388.66;4960792;28;20475;-68
2024/03/24 04:11:25;;;;;;;1.17;0.90;;;;;;;5.99;64.95;95391.06;4961045;28;20190;-66
2024/03/24 04:13:51;;;;;;;1.20;0.90;;;;;;;5.91;64.50;95393.13;4962680;28;20435;-68
2024/03/24 04:16:17;;;;;;;1.10;0.77;;;;;;;5.86;64.75;95398.53;4964344;28;20562;-68
2024/03/24 04:18:49;;;;;;;1.33;1.00;;;;;;;5.93;64.18;95391.31;4962108;28;20201;-69
2024/03/24 04:21:14;;;;;;;2.53;1.73;;;;;;;5.85;64.87;95393.38;4957634;28;20434;-67
2024/03/24 04:23:40;;;;;;;3.73;1.50;;;;;;;5.87;64.86;95392.38;4957953;28;20435;-68
2024/03/24 04:26:06;;;;;;;1.20;0.80;;;;;;;5.85;64.87;95382.94;4959956;28;20340;-70
2024/03/24 04:28:31;;;;;;;2.20;0.97;;;;;;;5.92;64.39;95379.19;4964818;28;20763;-68
2024/03/24 04:30:58;;;;;;;1.10;0.80;;;;;;;5.98;64.71;95385.94;4967267;28;20661;-69
2024/03/24 04:33:23;;;;;;;1.00;0.80;;;;;;;6.02;64.25;95390.09;4966378;28;20280;-69
2024/03/24 04:35:49;;;;;;;2.43;1.07;;;;;;;5.84;64.67;95384.72;4958791;28;20529;-69
2024/03/24 04:38:14;;;;;;;1.10;0.80;;;;;;;5.99;64.46;95392.81;4956147;28;20244;-69
2024/03/24 04:40:39;;;;;;;1.03;0.80;;;;;;;5.86;64.52;95388.09;4967731;28;20188;-67
2024/03/24 04:43:07;;;;;;;1.60;0.90;;;;;;;5.89;64.26;95381.94;4965955;28;20357;-69
2024/03/24 04:45:33;;;;;;;1.03;0.80;;;;;;;5.87;64.53;95383.75;4967661;28;20205;-68
2024/03/24 04:47:59;;;;;;;1.43;0.87;;;;;;;5.83;64.03;95377.81;4968731;28;20429;-68
2024/03/24 04:50:24;;;;;;;1.73;0.80;;;;;;;5.83;64.07;95387.38;4961116;28;20436;-70
2024/03/24 04:52:50;;;;;;;5.90;1.00;;;;;;;5.83;64.30;95384.78;4961764;28;20252;-68
2024/03/24 04:55:16;;;;;;;1.50;0.80;;;;;;;5.84;64.41;95383.88;4956879;28;20485;-68
2024/03/24 04:57:41;;;;;;;1.73;1.63;;;;;;;5.86;64.63;95387.28;4964371;28;20219;-68
2024/03/24 05:00:07;;;;;;;2.17;1.10;;;;;;;5.90;64.63;95384.44;4961511;28;20227;-68
2024/03/24 05:02:34;;;;;;;6.17;1.40;;;;;;;5.81;64.50;95389.19;4958577;28;20181;-69
2024/03/24 05:04:59;;;;;;;1.13;0.80;;;;;;;5.74;64.73;95388.63;4965847;28;20766;-70
2024/03/24 05:07:25;;;;;;;4.77;1.00;;;;;;;5.78;64.92;95391.94;4961476;28;20444;-69
2024/03/24 05:09:50;;;;;;;4.87;1.60;;;;;;;5.84;64.56;95402.94;4962309;28;20208;-68
2024/03/24 05:12:16;;;;;;;2.17;1.37;;;;;;;5.95;64.62;95402.50;4969476;28;20265;-69
2024/03/24 05:14:41;;;;;;;7.23;1.97;;;;;;;5.71;64.95;95406.94;4969826;28;20173;-66
2024/03/24 05:17:07;;;;;;;2.10;1.30;;;;;;;5.79;65.29;95401.41;4968357;28;20181;-67
2024/03/24 05:19:33;;;;;;;3.03;1.33;;;;;;;5.82;65.44;95399.56;4964062;28;20687;-68
2024/03/24 05:21:58;;;;;;;1.90;1.50;;;;;;;5.81;65.91;95404.81;4965855;28;20440;-67
2024/03/24 05:24:24;;;;;;;2.00;1.53;;;;;;;5.77;66.09;95403.25;4971286;28;20261;-69
2024/03/24 05:26:49;;;;;;;1.70;1.50;;;;;;;5.87;65.29;95392.38;4968830;28;20185;-69
2024/03/24 05:29:15;;;;;;;1.20;1.10;;;;;;;5.78;65.97;95390.16;4959598;28;20209;-67
2024/03/24 05:31:46;;;;;;;1.27;1.00;;;;;;;5.86;65.79;95387.28;4964525;28;20257;-67
2024/03/24 05:34:12;;;;;;;1.57;1.00;;;;;;;5.90;64.95;95384.44;4965383;28;20178;-69
2024/03/24 05:36:37;;;;;;;1.67;1.10;;;;;;;5.86;64.95;95392.47;4972611;28;20538;-68
2024/03/24 05:39:03;;;;;;;1.87;1.10;;;;;;;5.97;65.15;95395.50;4978831;28;20216;-68
2024/03/24 05:41:31;;;;;;;1.20;1.00;;;;;;;6.49;63.33;95401.06;4972295;28;20185;-68
2024/03/24 05:43:56;;;;;;;2.00;1.00;;;;;;;7.09;61.65;95392.34;4958673;28;20447;-67
2024/03/24 05:46:22;;;;;;;2.17;1.33;;;;;;;6.80;62.09;95394.47;4957947;28;20969;-68
2024/03/24 05:48:47;;;;;;;1.50;1.13;;;;;;;6.77;62.13;95392.88;4964225;28;20197;-69
2024/03/24 05:51:12;;;;;;;1.13;1.03;;;;;;;6.81;62.83;95392.75;4968002;28;20186;-69
2024/03/24 05:53:38;;;;;;;2.53;1.07;;;;;;;7.28;60.84;95392.31;4968607;28;20216;-68
2024/03/24 05:56:03;;;;;;;1.47;0.80;;;;;;;7.01;61.02;95392.66;4965432;28;20178;-69
2024/03/24 05:58:29;;;;;;;1.30;1.00;;;;;;;6.97;60.07;95398.97;4971630;28;20721;-70
2024/03/24 06:00:55;;;;;;;1.30;1.00;;;;;;;6.78;61.24;95399.78;4965201;28;20174;-69
2024/03/24 06:03:20;;;;;;;3.27;1.20;;;;;;;6.70;60.80;95396.66;4971245;28;20432;-68
2024/03/24 06:05:46;;;;;;;2.80;1.13;;;;;;;7.03;60.65;95397.81;4966980;28;20210;-66
2024/03/24 06:08:12;;;;;;;1.73;1.17;;;;;;;7.20;59.64;95398.75;4969285;28;20208;-69
2024/03/24 06:10:38;;;;;;;1.23;0.80;;;;;;;7.03;60.80;95396.06;4969920;28;20260;-69
2024/03/24 06:13:03;;;;;;;2.10;1.07;;;;;;;8.72;56.24;95389.50;4969556;28;20184;-68
2024/03/24 06:15:29;;;;;;;1.70;1.20;;;;;;;9.22;54.01;95397.28;4969216;28;20796;-70
2024/03/24 06:17:54;;;;;;;1.40;0.90;;;;;;;8.79;54.57;95401.38;4966567;28;20177;-69
2024/03/24 06:20:20;;;;;;;5.13;1.00;;;;;;;8.56;55.29;95407.81;4967323;28;20257;-70
2024/03/24 06:22:45;;;;;;;3.10;1.33;;;;;;;7.99;56.88;95395.81;4973049;28;20525;-70
2024/03/24 06:25:11;;;;;;;1.73;1.03;;;;;;;7.84;57.98;95405.25;4969790;28;20319;-70
2024/03/24 06:27:36;;;;;;;2.47;1.13;;;;;;;7.51;59.17;95404.25;4968011;28;20189;-69
2024/03/24 06:30:02;;;;;;;1.70;1.10;;;;;;;7.35;59.80;95404.16;4968146;28;20244;-69
2024/03/24 06:32:28;;;;;;;2.97;1.20;;;;;;;7.54;59.37;95401.53;4960752;28;20233;-69
2024/03/24 06:34:53;;;;;;;1.20;0.90;;;;;;;7.46;59.32;95403.63;4969037;28;20507;-70
2024/03/24 06:37:18;;;;;;;1.73;1.10;;;;;;;7.22;60.70;95406.47;4968138;28;20182;-69
2024/03/24 06:39:44;;;;;;;2.50;1.20;;;;;;;7.26;59.84;95408.03;4969859;28;20287;-68
2024/03/24 06:42:09;;;;;;;2.30;1.20;;;;;;;7.42;59.63;95411.63;4969875;28;20564;-69
2024/03/24 06:44:37;;;;;;;1.40;1.17;;;;;;;7.61;58.52;95408.13;4970820;28;20206;-69
2024/03/24 06:47:06;;;;;;;1.20;1.10;;;;;;;8.53;56.14;95415.78;4974425;28;20306;-69
2024/03/24 06:49:31;;;;;;;2.87;1.07;;;;;;;8.98;54.21;95411.72;4971162;28;20456;-73
2024/03/24 06:51:57;;;;;;;1.40;1.07;;;;;;;8.80;54.65;95401.28;4970372;28;20445;-67
2024/03/24 06:54:22;;;;;;;2.17;1.10;;;;;;;8.37;55.96;95406.09;4957165;28;20255;-70
2024/03/24 06:56:47;;;;;;;1.63;0.97;;;;;;;8.99;54.37;95406.38;4967784;28;20277;-70
2024/03/24 06:59:13;;;;;;;2.93;1.63;;;;;;;10.17;50.17;95397.16;4963070;28;20204;-68
2024/03/24 07:01:38;;;;;;;3.30;1.50;;;;;;;10.43;49.60;95397.44;4966909;28;20223;-68
2024/03/24 07:04:04;;;;;;;5.10;1.33;;;;;;;10.89;48.49;95393.78;4964476;28;20177;-68
2024/03/24 07:06:31;;;;;;;1.97;0.90;;;;;;;9.94;50.81;95405.50;4954609;28;20248;-70
2024/03/24 07:08:57;;;;;;;1.70;0.90;;;;;;;9.33;51.31;95410.63;4969699;28;20206;-69
2024/03/24 07:11:22;;;;;;;4.83;1.30;;;;;;;8.89;52.79;95413.03;4960614;28;20492;-70
2024/03/24 07:13:48;;;;;;;1.33;0.80;;;;;;;9.05;52.84;95410.44;4965978;28;20178;-71
2024/03/24 07:16:13;;;;;;;2.37;0.87;;;;;;;9.09;53.36;95425.03;4964898;28;20290;-69
2024/03/24 07:18:38;;;;;;;1.10;0.80;;;;;;;8.60;55.19;95420.63;4958820;28;20577;-71
2024/03/24 07:21:05;;;;;;;1.93;1.03;;;;;;;8.54;55.38;95423.56;4965735;28;20173;-71
2024/03/24 07:23:31;;;;;;;2.50;1.73;;;;;;;8.33;56.57;95422.00;4968751;28;20181;-70
2024/03/24 07:25:56;;;;;;;2.13;1.23;;;;;;;8.21;56.46;95424.31;4960223;28;21214;-69
2024/03/24 07:28:22;;;;;;;2.47;1.87;;;;;;;7.91;58.95;95437.13;4963930;28;20210;-70
2024/03/24 07:30:47;;;;;;;2.20;1.20;;;;;;;7.79;60.20;95435.09;4967387;28;20843;-67
2024/03/24 07:33:14;;;;;;;2.80;1.00;;;;;;;7.83;60.67;95442.72;4967347;28;20189;-70
2024/03/24 07:35:40;;;;;;;1.70;0.90;;;;;;;7.58;60.99;95461.34;4969558;28;20219;-70
2024/03/24 07:38:05;;;;;;;1.67;0.90;;;;;;;7.50;61.72;95450.41;4968129;28;20479;-73
2024/03/24 07:40:31;;;;;;;2.17;1.50;;;;;;;7.08;61.93;95456.69;4968747;28;20437;-69
2024/03/24 07:42:56;;;;;;;1.57;1.00;;;;;;;7.74;59.14;95456.22;4967080;28;20188;-69
2024/03/24 07:45:23;;;;;;;1.90;0.90;;;;;;;8.84;53.60;95441.22;4964834;28;20292;-70
2024/03/24 07:47:49;;;;;;;8.80;1.43;;;;;;;9.29;51.62;95447.53;4965088;28;20556;-69
2024/03/24 07:50:15;;;;;;;1.73;1.00;;;;;;;10.03;49.43;95453.94;4966254;28;20430;-71
2024/03/24 07:52:41;;;;;;;2.93;1.07;;;;;;;10.66;48.21;95445.06;4955064;28;20539;-70
2024/03/24 07:55:07;;;;;;;3.10;1.10;;;;;;;10.84;46.93;95443.09;4967313;28;20433;-70
2024/03/24 07:57:33;;;;;;;3.37;1.23;;;;;;;10.88;47.58;95431.50;4968406;28;20177;-69
2024/03/24 07:59:58;;;;;;;3.60;1.87;;;;;;;10.80;45.88;95437.22;4967376;28;20463;-69
2024/03/24 08:02:23;;;;;;;3.13;0.90;;;;;;;10.00;48.08;95433.97;4967258;28;20243;-70
2024/03/24 08:04:49;;;;;;;1.30;0.90;;;;;;;10.02;48.96;95439.16;4967981;28;20201;-69
2024/03/24 08:07:14;;;;;;;1.17;0.87;;;;;;;10.07;49.27;95430.06;4963184;28;20189;-70
2024/03/24 08:09:40;;;;;;;1.27;1.00;;;;;;;10.90;46.99;95422.59;4966050;28;20330;-70
2024/03/24 08:12:05;;;;;;;1.60;1.10;;;;;;;10.90;46.36;95432.25;4963265;28;20185;-69
2024/03/24 08:14:30;;;;;;;3.50;1.33;;;;;;;10.43;46.94;95441.19;4967059;28;20189;-70
2024/03/24 08:16:57;;;;;;;1.83;0.90;;;;;;;10.16;45.95;95447.06;4966736;28;20188;-69
2024/03/24 08:19:26;;;;;;;1.57;1.23;;;;;;;10.40;45.19;95444.00;4961636;28;20209;-70
2024/03/24 08:21:52;;;;;;;1.43;0.90;;;;;;;10.34;45.46;95438.13;4969673;28;20532;-69
2024/03/24 08:24:18;;;;;;;1.33;1.20;;;;;;;9.82;47.02;95448.97;4965110;28;20493;-69
2024/03/24 08:26:46;;;;;;;1.60;1.13;;;;;;;9.81;47.70;95447.28;4969007;28;20223;-69
2024/03/24 08:29:12;;;;;;;1.40;1.10;;;;;;;9.42;47.16;95448.53;4966944;28;20469;-68
2024/03/24 08:31:37;;;;;;;1.83;0.90;;;;;;;9.05;48.34;95450.53;4966254;28;20437;-70
2024/03/24 08:34:03;;;;;;;1.43;1.03;;;;;;;9.10;49.10;95453.75;4967914;28;20181;-69
2024/03/24 08:36:28;;;;;;;1.20;0.90;;;;;;;9.01;47.65;95453.41;4963455;28;20635;-69
2024/03/24 08:38:54;;;;;;;1.80;1.00;;;;;;;9.46;47.23;95449.22;4981882;28;20268;-68
2024/03/24 08:41:19;;;;;;;1.83;1.00;;;;;;;10.48;45.05;95449.63;4964460;28;20186;-71
2024/03/24 08:43:44;;;;;;;3.33;1.00;;;;;;;11.05;43.14;95433.09;4968638;28;20189;-70
2024/03/24 08:46:10;;;;;;;5.33;1.77;;;;;;;11.06;42.19;95443.50;4966889;28;20216;-72
2024/03/24 08:48:35;;;;;;;2.37;1.40;;;;;;;11.58;42.06;95439.44;4968115;28;20204;-68
2024/03/24 08:51:01;;;;;;;1.50;1.00;;;;;;;11.61;40.68;95453.19;4966561;28;20368;-67
2024/03/24 08:53:46;;;;;;;1.97;1.27;;;;;;;11.55;40.39;95434.34;4973659;28;20193;-67
2024/03/24 08:56:12;;;;;;;1.80;1.20;;;;;;;11.73;40.15;95440.22;4926238;29;20191;-68
2024/03/24 08:58:37;;;;;;;1.90;1.20;;;;;;;11.68;39.09;95431.81;4926160;29;20489;-67
2024/03/24 09:01:03;;;;;;;2.60;1.20;;;;;;;12.52;38.66;95430.72;4926826;29;20210;-67
2024/03/24 09:03:28;;;;;;;1.73;1.07;;;;;;;12.98;37.42;95432.88;4927583;29;20194;-67
2024/03/24 09:05:54;;;;;;;2.30;0.97;;;;;;;12.89;37.40;95432.53;4923400;29;20636;-67
2024/03/24 09:08:20;;;;;;;1.10;1.00;;;;;;;12.81;36.02;95429.59;4912828;28;20639;-66
2024/03/24 09:10:45;;;;;;;1.83;1.20;;;;;;;12.65;36.58;95431.59;4906512;29;20207;-67
2024/03/24 09:13:10;;;;;;;3.50;0.90;;;;;;;12.70;36.03;95426.84;4906148;29;20206;-69
2024/03/24 09:15:36;;;;;;;4.90;1.50;;;;;;;12.29;36.67;95425.22;4907645;29;20751;-67
2024/03/24 09:18:01;;;;;;;4.53;1.50;;;;;;;11.90;37.11;95454.94;4907620;29;20270;-69
2024/03/24 09:20:27;;;;;;;2.50;1.20;;;;;;;11.78;38.02;95438.16;4907295;29;20723;-70
2024/03/24 09:22:52;;;;;;;4.07;1.20;;;;;;;11.26;38.57;95444.06;4907033;29;20191;-68
2024/03/24 09:25:17;;;;;;;5.57;1.47;;;;;;;11.63;38.96;95438.19;4906789;29;20948;-67
2024/03/24 09:27:46;;;;;;;2.07;1.00;;;;;;;11.50;38.56;95441.69;4906143;29;20203;-67
2024/03/24 09:30:14;;;;;;;3.33;1.10;;;;;;;11.83;37.85;95446.56;4907100;29;20235;-68
2024/03/24 09:32:39;;;;;;;1.83;1.10;;;;;;;12.20;36.41;95429.28;4916999;28;20445;-67
2024/03/24 09:35:05;;;;;;;1.77;1.23;;;;;;;12.23;35.67;95426.44;4945418;28;20441;-69
2024/03/24 09:37:30;;;;;;;2.13;1.30;;;;;;;12.62;35.92;95421.28;4938311;28;20187;-68
2024/03/24 09:39:56;;;;;;;2.50;1.00;;;;;;;12.68;36.11;95432.25;4947590;28;20220;-68
2024/03/24 09:42:22;;;;;;;2.00;1.20;;;;;;;12.77;36.35;95419.38;4943180;28;20190;-66
2024/03/24 09:44:48;;;;;;;4.40;1.23;;;;;;;12.44;36.64;95428.59;4946803;28;20206;-67
2024/03/24 09:47:13;;;;;;;2.07;1.47;;;;;;;12.62;36.61;95429.16;4945934;28;20545;-67
2024/03/24 09:49:41;;;;;;;2.40;1.30;;;;;;;12.10;37.21;95427.38;4946712;28;20202;-68
2024/03/24 09:52:07;;;;;;;3.13;1.13;;;;;;;12.39;38.40;95433.34;4946482;28;20549;-66
2024/03/24 09:54:33;;;;;;;5.00;1.47;;;;;;;12.54;37.42;95419.13;4944807;28;20438;-68
2024/03/24 09:56:59;;;;;;;2.70;1.43;;;;;;;12.29;37.78;95435.75;4949436;29;20426;-67
2024/03/24 09:59:33;;;;;;;3.33;1.70;;;;;;;12.21;37.55;95428.38;4950753;28;20202;-68
2024/03/24 10:01:59;;;;;;;3.20;1.47;;;;;;;12.33;37.40;95429.34;4948786;28;20437;-67
2024/03/24 10:04:24;;;;;;;7.77;1.67;;;;;;;12.21;37.67;95431.00;4942319;28;20450;-67
2024/03/24 10:06:50;;;;;;;2.17;1.40;;;;;;;12.17;37.48;95418.97;4948268;28;20781;-67
2024/03/24 10:09:15;;;;;;;2.10;1.27;;;;;;;12.19;38.24;95416.22;4942184;28;20409;-67
2024/03/24 10:11:41;;;;;;;4.20;1.90;;;;;;;12.45;37.78;95415.34;4947073;28;20205;-68
2024/03/24 10:14:10;;;;;;;4.23;1.73;;;;;;;12.22;38.82;95424.78;4947799;28;20182;-68
2024/03/24 10:16:35;;;;;;;3.60;1.27;;;;;;;11.87;39.05;95421.81;4941913;28;20178;-67
2024/03/24 10:19:11;;;;;;;5.23;1.20;;;;;;;11.81;38.87;95430.06;4950288;28;20472;-67
2024/03/24 10:21:37;;;;;;;2.10;1.50;;;;;;;11.57;39.54;95422.78;4945291;28;20196;-67
2024/03/24 10:24:05;;;;;;;3.50;1.50;;;;;;;11.12;39.88;95434.41;4945547;28;20593;-68
2024/03/24 10:26:32;;;;;;;2.73;1.20;;;;;;;11.08;39.71;95431.13;4948802;28;20509;-67
2024/03/24 10:28:58;;;;;;;5.47;1.80;;;;;;;10.96;40.31;95423.97;4949288;29;20523;-66
2024/03/24 10:31:23;;;;;;;5.20;1.90;;;;;;;10.85;40.44;95429.91;4943038;28;20532;-68
2024/03/24 10:33:50;;;;;;;2.00;1.30;;;;;;;10.92;40.82;95425.97;4944093;28;20209;-69
2024/03/24 10:36:16;;;;;;;3.10;1.47;;;;;;;11.09;40.23;95419.69;4947159;28;20229;-67
2024/03/24 10:38:42;;;;;;;4.07;1.80;;;;;;;11.52;39.08;95424.88;4949172;28;20465;-67
2024/03/24 10:41:08;;;;;;;3.60;1.80;;;;;;;11.71;38.80;95424.53;4948763;28;20614;-68
2024/03/24 10:43:34;;;;;;;3.00;1.53;;;;;;;11.56;38.96;95422.91;4946848;28;20209;-68
2024/03/24 10:46:00;;;;;;;2.87;1.80;;;;;;;11.40;39.39;95417.78;4949160;28;20918;-69
2024/03/24 10:48:34;;;;;;;5.80;2.00;;;;;;;11.11;39.11;95417.81;4947609;28;20472;-68
2024/03/24 10:51:04;;;;;;;2.93;1.30;;;;;;;10.93;39.38;95430.28;4946199;28;20842;-67
2024/03/24 10:53:31;;;;;;;4.10;2.40;;;;;;;10.71;39.82;95428.09;4949561;28;20941;-68
2024/03/24 10:55:58;;;;;;;2.63;1.97;;;;;;;10.72;40.69;95437.66;4953987;28;20438;-68
2024/03/24 10:58:24;;;;;;;7.10;2.23;;;;;;;10.38;41.74;95457.19;4950760;28;20469;-70
2024/03/24 11:00:50;;;;;;;2.90;2.30;;;;;;;10.55;41.37;95448.31;4946585;28;20441;-67
2024/03/24 11:03:17;;;;;;;4.23;2.10;;;;;;;10.54;40.09;95428.28;4947789;28;20873;-68
2024/03/24 11:05:44;;;;;;;6.23;2.13;;;;;;;10.33;39.80;95451.38;4943871;28;20466;-67
2024/03/24 11:08:13;;;;;;;2.40;1.90;;;;;;;10.17;39.91;95448.75;4948448;28;20457;-68
2024/03/24 11:10:41;;;;;;;3.83;2.07;;;;;;;10.04;39.83;95438.13;4941930;28;20438;-67
2024/03/24 11:13:08;;;;;;;3.17;2.20;;;;;;;10.11;40.27;95451.69;4949914;28;20444;-67
2024/03/24 11:15:34;;;;;;;4.57;2.43;;;;;;;10.08;40.24;95451.88;4947504;28;20493;-67
2024/03/24 11:18:03;;;;;;;7.30;3.10;;;;;;;10.06;40.59;95444.13;4947794;28;20783;-68
2024/03/24 11:20:28;;;;;;;5.80;2.53;;;;;;;10.08;40.91;95441.41;4950493;28;20442;-67
2024/03/24 11:22:54;;;;;;;3.40;1.90;;;;;;;10.14;40.80;95446.31;4952905;28;21239;-67
2024/03/24 11:25:20;;;;;;;3.37;2.13;;;;;;;10.15;40.87;95445.34;4941522;28;20211;-66
2024/03/24 11:27:46;;;;;;;4.53;2.30;;;;;;;10.22;41.63;95451.09;4950460;28;20639;-67
2024/03/24 11:30:12;;;;;;;3.10;2.03;;;;;;;10.12;41.28;95449.00;4949410;28;20301;-67
2024/03/24 11:32:57;;;;;;;5.50;2.13;;;;;;;10.22;40.92;95440.59;4952382;28;20889;-67